sensor_id;sensor_type;location;lat;lon;timestamp;temperature;humidity
3194;DHT22;1608;50.860;13.466;2022-07-18T00:00:35;14.00;87.80
3194;DHT22;1608;50.860;13.466;2022-07-18T00:03:03;14.00;88.10
3194;DHT22;1608;50.860;13.466;2022-07-18T00:05:30;14.00;88.40
3194;DHT22;1608;50.860;13.466;2022-07-18T00:07:56;14.00;87.80
3194;DHT22;1608;50.860;13.466;2022-07-18T00:10:23;14.10;88.30
3194;DHT22;1608;50.860;13.466;2022-07-18T00:12:50;14.00;88.40
3194;DHT22;1608;50.860;13.466;2022-07-18T00:15:17;14.10;88.60
3194;DHT22;1608;50.860;13.466;2022-07-18T00:17:44;14.00;87.70
3194;DHT22;1608;50.860;13.466;2022-07-18T00:20:12;14.00;88.20
3194;DHT22;1608;50.860;13.466;2022-07-18T00:22:39;14.00;88.10
3194;DHT22;1608;50.860;13.466;2022-07-18T00:25:06;13.90;88.30
3194;DHT22;1608;50.860;13.466;2022-07-18T00:27:33;13.90;88.60
3194;DHT22;1608;50.860;13.466;2022-07-18T00:30:00;13.80;88.80
3194;DHT22;1608;50.860;13.466;2022-07-18T00:32:27;13.80;88.80
3194;DHT22;1608;50.860;13.466;2022-07-18T00:34:53;13.70;88.70
3194;DHT22;1608;50.860;13.466;2022-07-18T00:37:22;13.70;89.20
3194;DHT22;1608;50.860;13.466;2022-07-18T00:39:48;13.70;89.50
3194;DHT22;1608;50.860;13.466;2022-07-18T00:42:15;13.70;89.30
3194;DHT22;1608;50.860;13.466;2022-07-18T00:44:42;13.70;89.40
3194;DHT22;1608;50.860;13.466;2022-07-18T00:47:09;13.70;89.70
3194;DHT22;1608;50.860;13.466;2022-07-18T00:49:36;13.60;89.90
3194;DHT22;1608;50.860;13.466;2022-07-18T00:52:03;13.60;90.00
3194;DHT22;1608;50.860;13.466;2022-07-18T00:54:31;13.60;90.20
3194;DHT22;1608;50.860;13.466;2022-07-18T00:56:59;13.50;90.20
3194;DHT22;1608;50.860;13.466;2022-07-18T00:59:26;13.50;90.50
3194;DHT22;1608;50.860;13.466;2022-07-18T01:02:13;13.50;90.60
3194;DHT22;1608;50.860;13.466;2022-07-18T01:04:39;13.50;90.60
3194;DHT22;1608;50.860;13.466;2022-07-18T01:07:05;13.50;90.40
3194;DHT22;1608;50.860;13.466;2022-07-18T01:09:34;13.40;90.20
3194;DHT22;1608;50.860;13.466;2022-07-18T01:12:01;13.40;90.30
3194;DHT22;1608;50.860;13.466;2022-07-18T01:14:28;13.40;90.30
3194;DHT22;1608;50.860;13.466;2022-07-18T01:16:55;13.30;90.40
3194;DHT22;1608;50.860;13.466;2022-07-18T01:19:22;13.30;90.50
3194;DHT22;1608;50.860;13.466;2022-07-18T01:21:50;13.30;90.50
3194;DHT22;1608;50.860;13.466;2022-07-18T01:24:17;13.30;90.60
3194;DHT22;1608;50.860;13.466;2022-07-18T01:26:44;13.30;90.70
3194;DHT22;1608;50.860;13.466;2022-07-18T01:29:11;13.20;90.90
3194;DHT22;1608;50.860;13.466;2022-07-18T01:31:37;13.20;90.90
3194;DHT22;1608;50.860;13.466;2022-07-18T01:34:04;13.20;91.00
3194;DHT22;1608;50.860;13.466;2022-07-18T01:36:31;13.00;91.70
3194;DHT22;1608;50.860;13.466;2022-07-18T01:39:00;13.10;91.20
3194;DHT22;1608;50.860;13.466;2022-07-18T01:41:26;13.10;91.50
3194;DHT22;1608;50.860;13.466;2022-07-18T01:43:53;13.00;91.50
3194;DHT22;1608;50.860;13.466;2022-07-18T01:48:47;13.00;91.30
3194;DHT22;1608;50.860;13.466;2022-07-18T01:51:14;13.00;91.60
3194;DHT22;1608;50.860;13.466;2022-07-18T01:53:41;13.00;91.70
3194;DHT22;1608;50.860;13.466;2022-07-18T01:56:12;13.00;91.70
3194;DHT22;1608;50.860;13.466;2022-07-18T01:58:39;13.00;91.80
3194;DHT22;1608;50.860;13.466;2022-07-18T02:01:06;12.90;92.00
3194;DHT22;1608;50.860;13.466;2022-07-18T02:03:33;12.80;92.20
3194;DHT22;1608;50.860;13.466;2022-07-18T02:06:00;12.80;92.40
3194;DHT22;1608;50.860;13.466;2022-07-18T02:08:27;12.90;92.30
3194;DHT22;1608;50.860;13.466;2022-07-18T02:10:53;12.90;92.10
3194;DHT22;1608;50.860;13.466;2022-07-18T02:13:22;12.90;92.00
3194;DHT22;1608;50.860;13.466;2022-07-18T02:15:49;12.90;92.00
3194;DHT22;1608;50.860;13.466;2022-07-18T02:18:16;12.90;91.70
3194;DHT22;1608;50.860;13.466;2022-07-18T02:20:42;12.80;92.00
3194;DHT22;1608;50.860;13.466;2022-07-18T02:23:09;12.80;92.10
3194;DHT22;1608;50.860;13.466;2022-07-18T02:25:36;12.70;92.20
3194;DHT22;1608;50.860;13.466;2022-07-18T02:28:03;12.80;92.40
3194;DHT22;1608;50.860;13.466;2022-07-18T02:30:31;12.70;92.60
3194;DHT22;1608;50.860;13.466;2022-07-18T02:32:58;12.60;92.60
3194;DHT22;1608;50.860;13.466;2022-07-18T02:35:25;12.70;92.60
3194;DHT22;1608;50.860;13.466;2022-07-18T02:37:52;12.70;92.40
3194;DHT22;1608;50.860;13.466;2022-07-18T02:40:19;12.60;92.50
3194;DHT22;1608;50.860;13.466;2022-07-18T02:42:45;12.60;92.50
3194;DHT22;1608;50.860;13.466;2022-07-18T02:45:12;12.50;92.50
3194;DHT22;1608;50.860;13.466;2022-07-18T02:47:40;12.50;92.50
3194;DHT22;1608;50.860;13.466;2022-07-18T02:50:08;12.50;92.80
3194;DHT22;1608;50.860;13.466;2022-07-18T02:52:35;12.50;92.70
3194;DHT22;1608;50.860;13.466;2022-07-18T02:55:03;12.50;92.60
3194;DHT22;1608;50.860;13.466;2022-07-18T02:57:30;12.50;92.40
3194;DHT22;1608;50.860;13.466;2022-07-18T02:59:56;12.50;92.60
3194;DHT22;1608;50.860;13.466;2022-07-18T03:02:25;12.50;92.50
3194;DHT22;1608;50.860;13.466;2022-07-18T03:04:53;12.40;92.60
3194;DHT22;1608;50.860;13.466;2022-07-18T03:07:20;12.50;92.40
3194;DHT22;1608;50.860;13.466;2022-07-18T03:09:47;12.50;92.70
3194;DHT22;1608;50.860;13.466;2022-07-18T03:12:13;12.40;92.80
3194;DHT22;1608;50.860;13.466;2022-07-18T03:14:40;12.50;93.00
3194;DHT22;1608;50.860;13.466;2022-07-18T03:17:07;12.50;92.80
3194;DHT22;1608;50.860;13.466;2022-07-18T03:19:34;12.50;93.00
3194;DHT22;1608;50.860;13.466;2022-07-18T03:22:02;12.50;92.80
3194;DHT22;1608;50.860;13.466;2022-07-18T03:24:29;12.40;93.00
3194;DHT22;1608;50.860;13.466;2022-07-18T03:26:56;12.30;93.00
3194;DHT22;1608;50.860;13.466;2022-07-18T03:29:23;12.30;93.30
3194;DHT22;1608;50.860;13.466;2022-07-18T03:31:51;12.20;93.40
3194;DHT22;1608;50.860;13.466;2022-07-18T03:34:18;12.20;93.60
3194;DHT22;1608;50.860;13.466;2022-07-18T03:36:45;12.20;93.50
3194;DHT22;1608;50.860;13.466;2022-07-18T03:39:13;12.20;93.80
3194;DHT22;1608;50.860;13.466;2022-07-18T03:41:40;12.30;93.80
3194;DHT22;1608;50.860;13.466;2022-07-18T03:44:07;12.40;93.70
3194;DHT22;1608;50.860;13.466;2022-07-18T03:46:34;12.50;95.60
3194;DHT22;1608;50.860;13.466;2022-07-18T03:49:00;12.50;93.30
3194;DHT22;1608;50.860;13.466;2022-07-18T03:51:27;12.50;93.60
3194;DHT22;1608;50.860;13.466;2022-07-18T03:53:54;12.50;93.50
3194;DHT22;1608;50.860;13.466;2022-07-18T03:56:22;12.60;96.00
3194;DHT22;1608;50.860;13.466;2022-07-18T03:58:49;12.70;93.30
3194;DHT22;1608;50.860;13.466;2022-07-18T04:01:16;12.80;93.30
3194;DHT22;1608;50.860;13.466;2022-07-18T04:03:43;12.80;93.00
3194;DHT22;1608;50.860;13.466;2022-07-18T04:06:10;12.90;92.90
3194;DHT22;1608;50.860;13.466;2022-07-18T04:08:37;12.90;92.60
3194;DHT22;1608;50.860;13.466;2022-07-18T04:11:03;12.90;92.80
3194;DHT22;1608;50.860;13.466;2022-07-18T04:13:31;13.00;92.80
3194;DHT22;1608;50.860;13.466;2022-07-18T04:15:58;13.10;92.90
3194;DHT22;1608;50.860;13.466;2022-07-18T04:18:25;13.90;92.50
3194;DHT22;1608;50.860;13.466;2022-07-18T04:20:52;14.90;91.90
3194;DHT22;1608;50.860;13.466;2022-07-18T04:23:19;16.00;90.10
3194;DHT22;1608;50.860;13.466;2022-07-18T04:25:45;17.10;86.80
3194;DHT22;1608;50.860;13.466;2022-07-18T04:28:13;18.30;81.50
3194;DHT22;1608;50.860;13.466;2022-07-18T04:30:42;18.80;79.80
3194;DHT22;1608;50.860;13.466;2022-07-18T04:33:10;19.40;76.60
3194;DHT22;1608;50.860;13.466;2022-07-18T04:35:38;19.90;74.90
3194;DHT22;1608;50.860;13.466;2022-07-18T04:38:06;20.60;71.20
3194;DHT22;1608;50.860;13.466;2022-07-18T04:40:33;21.00;69.90
3194;DHT22;1608;50.860;13.466;2022-07-18T04:43:00;21.60;68.80
3194;DHT22;1608;50.860;13.466;2022-07-18T04:45:27;22.20;67.10
3194;DHT22;1608;50.860;13.466;2022-07-18T04:47:55;22.90;63.70
3194;DHT22;1608;50.860;13.466;2022-07-18T04:50:22;23.30;63.60
3194;DHT22;1608;50.860;13.466;2022-07-18T04:52:50;23.80;62.20
3194;DHT22;1608;50.860;13.466;2022-07-18T04:55:19;24.30;61.10
3194;DHT22;1608;50.860;13.466;2022-07-18T04:57:47;25.00;58.70
3194;DHT22;1608;50.860;13.466;2022-07-18T05:00:15;25.30;58.60
3194;DHT22;1608;50.860;13.466;2022-07-18T05:02:43;25.80;57.60
3194;DHT22;1608;50.860;13.466;2022-07-18T05:05:12;26.30;56.50
3194;DHT22;1608;50.860;13.466;2022-07-18T05:07:40;26.80;54.20
3194;DHT22;1608;50.860;13.466;2022-07-18T05:10:08;26.80;54.00
3194;DHT22;1608;50.860;13.466;2022-07-18T05:12:35;27.10;53.20
3194;DHT22;1608;50.860;13.466;2022-07-18T05:15:04;27.40;53.10
3194;DHT22;1608;50.860;13.466;2022-07-18T05:17:31;27.80;52.20
3194;DHT22;1608;50.860;13.466;2022-07-18T05:19:58;27.90;52.20
3194;DHT22;1608;50.860;13.466;2022-07-18T05:22:27;28.30;51.80
3194;DHT22;1608;50.860;13.466;2022-07-18T05:24:53;28.80;51.00
3194;DHT22;1608;50.860;13.466;2022-07-18T05:27:20;29.00;50.20
3194;DHT22;1608;50.860;13.466;2022-07-18T05:29:47;29.20;50.00
3194;DHT22;1608;50.860;13.466;2022-07-18T05:32:14;29.70;49.50
3194;DHT22;1608;50.860;13.466;2022-07-18T05:34:40;30.10;48.70
3194;DHT22;1608;50.860;13.466;2022-07-18T05:37:07;30.30;48.00
3194;DHT22;1608;50.860;13.466;2022-07-18T05:39:36;30.50;47.60
3194;DHT22;1608;50.860;13.466;2022-07-18T05:42:03;30.80;47.10
3194;DHT22;1608;50.860;13.466;2022-07-18T05:44:30;31.20;46.60
3194;DHT22;1608;50.860;13.466;2022-07-18T05:46:57;31.60;46.50
3194;DHT22;1608;50.860;13.466;2022-07-18T05:49:24;31.90;45.90
3194;DHT22;1608;50.860;13.466;2022-07-18T05:51:50;32.10;44.90
3194;DHT22;1608;50.860;13.466;2022-07-18T05:54:17;32.30;45.20
3194;DHT22;1608;50.860;13.466;2022-07-18T05:56:47;32.50;45.60
3194;DHT22;1608;50.860;13.466;2022-07-18T05:59:13;32.50;45.00
3194;DHT22;1608;50.860;13.466;2022-07-18T06:01:40;32.60;44.10
3194;DHT22;1608;50.860;13.466;2022-07-18T06:04:07;32.80;43.70
3194;DHT22;1608;50.860;13.466;2022-07-18T06:06:34;35.00;48.40
3194;DHT22;1608;50.860;13.466;2022-07-18T06:09:01;33.10;43.50
3194;DHT22;1608;50.860;13.466;2022-07-18T06:11:28;33.10;44.10
3194;DHT22;1608;50.860;13.466;2022-07-18T06:13:56;33.10;44.50
3194;DHT22;1608;50.860;13.466;2022-07-18T06:16:28;33.60;46.40
3194;DHT22;1608;50.860;13.466;2022-07-18T06:18:54;33.70;43.90
3194;DHT22;1608;50.860;13.466;2022-07-18T06:21:21;34.00;43.20
3194;DHT22;1608;50.860;13.466;2022-07-18T06:23:48;34.40;40.20
3194;DHT22;1608;50.860;13.466;2022-07-18T06:26:15;34.60;39.80
3194;DHT22;1608;50.860;13.466;2022-07-18T06:28:41;34.80;38.70
3194;DHT22;1608;50.860;13.466;2022-07-18T06:31:10;34.90;39.20
3194;DHT22;1608;50.860;13.466;2022-07-18T06:33:40;35.20;38.60
3194;DHT22;1608;50.860;13.466;2022-07-18T06:36:07;35.50;38.40
3194;DHT22;1608;50.860;13.466;2022-07-18T06:38:37;35.80;36.50
3194;DHT22;1608;50.860;13.466;2022-07-18T06:41:04;35.90;35.60
3194;DHT22;1608;50.860;13.466;2022-07-18T06:43:31;36.20;33.60
3194;DHT22;1608;50.860;13.466;2022-07-18T06:45:57;36.50;31.80
3194;DHT22;1608;50.860;13.466;2022-07-18T06:48:25;36.50;31.00
3194;DHT22;1608;50.860;13.466;2022-07-18T06:50:58;36.70;31.70
3194;DHT22;1608;50.860;13.466;2022-07-18T06:53:25;37.10;30.20
3194;DHT22;1608;50.860;13.466;2022-07-18T06:55:51;37.50;30.20
3194;DHT22;1608;50.860;13.466;2022-07-18T06:58:18;37.40;29.20
3194;DHT22;1608;50.860;13.466;2022-07-18T07:00:45;37.40;29.20
3194;DHT22;1608;50.860;13.466;2022-07-18T07:03:12;36.80;29.90
3194;DHT22;1608;50.860;13.466;2022-07-18T07:05:40;36.30;29.80
3194;DHT22;1608;50.860;13.466;2022-07-18T07:08:07;36.20;29.60
3194;DHT22;1608;50.860;13.466;2022-07-18T07:10:33;36.30;30.10
3194;DHT22;1608;50.860;13.466;2022-07-18T07:13:00;36.70;29.70
3194;DHT22;1608;50.860;13.466;2022-07-18T07:15:27;37.20;28.80
3194;DHT22;1608;50.860;13.466;2022-07-18T07:17:54;37.10;28.90
3194;DHT22;1608;50.860;13.466;2022-07-18T07:20:21;37.10;29.00
3194;DHT22;1608;50.860;13.466;2022-07-18T07:22:50;37.00;29.80
3194;DHT22;1608;50.860;13.466;2022-07-18T07:25:18;36.40;29.30
3194;DHT22;1608;50.860;13.466;2022-07-18T07:27:45;35.60;30.50
3194;DHT22;1608;50.860;13.466;2022-07-18T07:30:13;35.60;30.20
3194;DHT22;1608;50.860;13.466;2022-07-18T07:32:42;35.70;30.00
3194;DHT22;1608;50.860;13.466;2022-07-18T07:35:11;36.10;29.70
3194;DHT22;1608;50.860;13.466;2022-07-18T07:37:38;35.80;30.40
3194;DHT22;1608;50.860;13.466;2022-07-18T07:40:07;35.70;29.70
3194;DHT22;1608;50.860;13.466;2022-07-18T07:42:34;35.30;30.00
3194;DHT22;1608;50.860;13.466;2022-07-18T07:45:02;35.40;30.30
3194;DHT22;1608;50.860;13.466;2022-07-18T07:47:28;36.00;30.00
3194;DHT22;1608;50.860;13.466;2022-07-18T07:49:55;36.20;29.90
3194;DHT22;1608;50.860;13.466;2022-07-18T07:52:22;36.70;30.00
3194;DHT22;1608;50.860;13.466;2022-07-18T07:54:50;37.50;29.30
3194;DHT22;1608;50.860;13.466;2022-07-18T07:57:19;38.60;29.10
3194;DHT22;1608;50.860;13.466;2022-07-18T07:59:46;38.80;27.90
3194;DHT22;1608;50.860;13.466;2022-07-18T08:02:13;39.60;27.30
3194;DHT22;1608;50.860;13.466;2022-07-18T08:04:40;40.00;26.50
3194;DHT22;1608;50.860;13.466;2022-07-18T08:07:07;40.70;27.80
3194;DHT22;1608;50.860;13.466;2022-07-18T08:09:34;40.60;27.10
3194;DHT22;1608;50.860;13.466;2022-07-18T08:12:00;41.00;26.50
3194;DHT22;1608;50.860;13.466;2022-07-18T08:14:29;41.50;26.20
3194;DHT22;1608;50.860;13.466;2022-07-18T08:16:58;41.60;26.20
3194;DHT22;1608;50.860;13.466;2022-07-18T08:19:24;41.20;25.50
3194;DHT22;1608;50.860;13.466;2022-07-18T08:21:51;41.20;26.60
3194;DHT22;1608;50.860;13.466;2022-07-18T08:24:18;41.20;26.30
3194;DHT22;1608;50.860;13.466;2022-07-18T08:26:45;41.10;26.30
3194;DHT22;1608;50.860;13.466;2022-07-18T08:29:11;41.10;26.10
3194;DHT22;1608;50.860;13.466;2022-07-18T08:31:39;40.70;25.60
3194;DHT22;1608;50.860;13.466;2022-07-18T08:34:06;40.20;26.20
3194;DHT22;1608;50.860;13.466;2022-07-18T08:36:33;39.30;27.80
3194;DHT22;1608;50.860;13.466;2022-07-18T08:39:00;38.60;27.50
3194;DHT22;1608;50.860;13.466;2022-07-18T08:41:27;38.40;28.40
3194;DHT22;1608;50.860;13.466;2022-07-18T08:43:55;38.30;29.60
3194;DHT22;1608;50.860;13.466;2022-07-18T08:46:22;38.50;28.70
3194;DHT22;1608;50.860;13.466;2022-07-18T08:48:51;38.10;28.50
3194;DHT22;1608;50.860;13.466;2022-07-18T08:51:21;37.70;29.00
3194;DHT22;1608;50.860;13.466;2022-07-18T08:53:48;37.20;30.50
3194;DHT22;1608;50.860;13.466;2022-07-18T08:56:16;36.90;29.60
3194;DHT22;1608;50.860;13.466;2022-07-18T08:58:43;36.60;30.70
3194;DHT22;1608;50.860;13.466;2022-07-18T09:01:10;36.50;31.00
3194;DHT22;1608;50.860;13.466;2022-07-18T09:03:37;36.30;31.00
3194;DHT22;1608;50.860;13.466;2022-07-18T09:06:06;35.90;31.10
3194;DHT22;1608;50.860;13.466;2022-07-18T09:08:33;35.40;30.60
3194;DHT22;1608;50.860;13.466;2022-07-18T09:11:02;35.10;31.30
3194;DHT22;1608;50.860;13.466;2022-07-18T09:13:38;34.70;31.90
3194;DHT22;1608;50.860;13.466;2022-07-18T09:16:07;33.80;32.40
3194;DHT22;1608;50.860;13.466;2022-07-18T09:18:36;32.80;33.20
3194;DHT22;1608;50.860;13.466;2022-07-18T09:21:06;32.30;34.10
3194;DHT22;1608;50.860;13.466;2022-07-18T09:23:36;31.60;34.80
3194;DHT22;1608;50.860;13.466;2022-07-18T09:26:04;31.10;35.80
3194;DHT22;1608;50.860;13.466;2022-07-18T09:28:45;31.10;34.50
3194;DHT22;1608;50.860;13.466;2022-07-18T09:31:18;31.20;38.00
3194;DHT22;1608;50.860;13.466;2022-07-18T09:33:51;31.20;37.10
3194;DHT22;1608;50.860;13.466;2022-07-18T09:36:20;31.20;38.50
3194;DHT22;1608;50.860;13.466;2022-07-18T09:38:47;31.30;36.60
3194;DHT22;1608;50.860;13.466;2022-07-18T09:41:14;31.20;37.70
3194;DHT22;1608;50.860;13.466;2022-07-18T09:43:42;31.00;36.80
3194;DHT22;1608;50.860;13.466;2022-07-18T09:46:09;30.80;37.60
3194;DHT22;1608;50.860;13.466;2022-07-18T09:48:35;30.90;38.50
3194;DHT22;1608;50.860;13.466;2022-07-18T09:51:04;31.00;39.50
3194;DHT22;1608;50.860;13.466;2022-07-18T09:53:34;31.20;38.10
3194;DHT22;1608;50.860;13.466;2022-07-18T09:56:03;31.10;38.50
3194;DHT22;1608;50.860;13.466;2022-07-18T09:58:32;31.10;38.10
3194;DHT22;1608;50.860;13.466;2022-07-18T10:01:01;31.20;38.40
3194;DHT22;1608;50.860;13.466;2022-07-18T10:03:28;31.00;38.30
3194;DHT22;1608;50.860;13.466;2022-07-18T10:05:57;30.90;39.10
3194;DHT22;1608;50.860;13.466;2022-07-18T10:08:25;30.60;38.80
3194;DHT22;1608;50.860;13.466;2022-07-18T10:10:55;30.50;39.90
3194;DHT22;1608;50.860;13.466;2022-07-18T10:13:26;30.40;40.30
3194;DHT22;1608;50.860;13.466;2022-07-18T10:15:53;30.30;39.50
3194;DHT22;1608;50.860;13.466;2022-07-18T10:18:21;30.20;39.50
3194;DHT22;1608;50.860;13.466;2022-07-18T10:20:52;30.30;40.10
3194;DHT22;1608;50.860;13.466;2022-07-18T10:23:22;30.30;39.40
3194;DHT22;1608;50.860;13.466;2022-07-18T10:26:11;30.30;40.80
3194;DHT22;1608;50.860;13.466;2022-07-18T10:29:09;30.40;39.90
3194;DHT22;1608;50.860;13.466;2022-07-18T10:31:36;30.20;40.60
3194;DHT22;1608;50.860;13.466;2022-07-18T10:34:10;30.20;40.60
3194;DHT22;1608;50.860;13.466;2022-07-18T10:36:39;30.10;39.60
3194;DHT22;1608;50.860;13.466;2022-07-18T10:39:07;30.20;39.50
3194;DHT22;1608;50.860;13.466;2022-07-18T10:42:17;30.20;40.60
3194;DHT22;1608;50.860;13.466;2022-07-18T10:44:45;29.90;39.90
3194;DHT22;1608;50.860;13.466;2022-07-18T10:47:14;29.50;40.60
3194;DHT22;1608;50.860;13.466;2022-07-18T10:50:03;29.50;40.40
3194;DHT22;1608;50.860;13.466;2022-07-18T10:52:55;29.40;40.40
3194;DHT22;1608;50.860;13.466;2022-07-18T10:55:32;29.50;42.40
3194;DHT22;1608;50.860;13.466;2022-07-18T10:58:20;29.40;39.90
3194;DHT22;1608;50.860;13.466;2022-07-18T11:00:50;29.40;40.20
3194;DHT22;1608;50.860;13.466;2022-07-18T11:03:26;29.00;38.90
3194;DHT22;1608;50.860;13.466;2022-07-18T11:05:55;29.10;41.00
3194;DHT22;1608;50.860;13.466;2022-07-18T11:08:22;29.60;38.30
3194;DHT22;1608;50.860;13.466;2022-07-18T11:11:10;29.60;39.40
3194;DHT22;1608;50.860;13.466;2022-07-18T11:13:41;29.70;39.90
3194;DHT22;1608;50.860;13.466;2022-07-18T11:16:10;29.90;40.40
3194;DHT22;1608;50.860;13.466;2022-07-18T11:19:15;30.30;40.10
3194;DHT22;1608;50.860;13.466;2022-07-18T11:21:44;30.50;39.80
3194;DHT22;1608;50.860;13.466;2022-07-18T11:24:12;30.80;39.90
3194;DHT22;1608;50.860;13.466;2022-07-18T11:26:44;30.90;39.50
3194;DHT22;1608;50.860;13.466;2022-07-18T11:29:14;31.10;39.70
3194;DHT22;1608;50.860;13.466;2022-07-18T11:31:45;31.10;39.10
3194;DHT22;1608;50.860;13.466;2022-07-18T11:34:13;31.20;39.10
3194;DHT22;1608;50.860;13.466;2022-07-18T11:36:42;31.30;39.50
3194;DHT22;1608;50.860;13.466;2022-07-18T11:39:09;31.20;38.60
3194;DHT22;1608;50.860;13.466;2022-07-18T11:41:36;31.00;38.00
3194;DHT22;1608;50.860;13.466;2022-07-18T11:44:05;30.80;38.00
3194;DHT22;1608;50.860;13.466;2022-07-18T11:46:43;30.50;39.80
3194;DHT22;1608;50.860;13.466;2022-07-18T11:49:10;30.30;37.90
3194;DHT22;1608;50.860;13.466;2022-07-18T11:51:39;30.20;38.80
3194;DHT22;1608;50.860;13.466;2022-07-18T11:54:07;30.40;38.90
3194;DHT22;1608;50.860;13.466;2022-07-18T11:56:44;30.60;39.00
3194;DHT22;1608;50.860;13.466;2022-07-18T11:59:11;30.80;39.90
3194;DHT22;1608;50.860;13.466;2022-07-18T12:01:38;30.90;38.70
3194;DHT22;1608;50.860;13.466;2022-07-18T12:04:06;31.10;37.40
3194;DHT22;1608;50.860;13.466;2022-07-18T12:06:40;31.20;39.60
3194;DHT22;1608;50.860;13.466;2022-07-18T12:09:07;31.40;40.00
3194;DHT22;1608;50.860;13.466;2022-07-18T12:11:37;31.60;39.70
3194;DHT22;1608;50.860;13.466;2022-07-18T12:14:14;31.80;40.30
3194;DHT22;1608;50.860;13.466;2022-07-18T12:16:42;31.90;38.10
3194;DHT22;1608;50.860;13.466;2022-07-18T12:19:12;31.60;39.10
3194;DHT22;1608;50.860;13.466;2022-07-18T12:21:45;31.40;38.40
3194;DHT22;1608;50.860;13.466;2022-07-18T12:24:19;31.10;37.50
3194;DHT22;1608;50.860;13.466;2022-07-18T12:26:46;30.90;39.30
3194;DHT22;1608;50.860;13.466;2022-07-18T12:29:13;30.90;38.10
3194;DHT22;1608;50.860;13.466;2022-07-18T12:31:41;30.70;37.80
3194;DHT22;1608;50.860;13.466;2022-07-18T12:34:14;30.70;38.40
3194;DHT22;1608;50.860;13.466;2022-07-18T12:36:52;30.70;37.50
3194;DHT22;1608;50.860;13.466;2022-07-18T12:39:27;30.80;39.30
3194;DHT22;1608;50.860;13.466;2022-07-18T12:41:53;30.70;38.50
3194;DHT22;1608;50.860;13.466;2022-07-18T12:44:20;30.70;38.00
3194;DHT22;1608;50.860;13.466;2022-07-18T12:46:47;30.70;39.20
3194;DHT22;1608;50.860;13.466;2022-07-18T12:49:15;30.90;40.50
3194;DHT22;1608;50.860;13.466;2022-07-18T12:51:42;30.90;39.80
3194;DHT22;1608;50.860;13.466;2022-07-18T12:54:09;30.80;39.30
3194;DHT22;1608;50.860;13.466;2022-07-18T12:56:36;30.70;39.50
3194;DHT22;1608;50.860;13.466;2022-07-18T12:59:03;30.60;39.80
3194;DHT22;1608;50.860;13.466;2022-07-18T13:01:31;30.60;39.40
3194;DHT22;1608;50.860;13.466;2022-07-18T13:03:57;30.50;39.80
3194;DHT22;1608;50.860;13.466;2022-07-18T13:06:25;30.50;38.80
3194;DHT22;1608;50.860;13.466;2022-07-18T13:08:52;30.40;39.00
3194;DHT22;1608;50.860;13.466;2022-07-18T13:11:19;30.80;38.20
3194;DHT22;1608;50.860;13.466;2022-07-18T13:13:46;30.90;37.60
3194;DHT22;1608;50.860;13.466;2022-07-18T13:16:12;30.90;38.70
3194;DHT22;1608;50.860;13.466;2022-07-18T13:18:39;31.00;38.10
3194;DHT22;1608;50.860;13.466;2022-07-18T13:21:06;31.00;39.80
3194;DHT22;1608;50.860;13.466;2022-07-18T13:23:34;31.10;39.20
3194;DHT22;1608;50.860;13.466;2022-07-18T13:26:01;31.10;39.80
3194;DHT22;1608;50.860;13.466;2022-07-18T13:28:28;31.20;40.30
3194;DHT22;1608;50.860;13.466;2022-07-18T13:30:54;31.10;39.60
3194;DHT22;1608;50.860;13.466;2022-07-18T13:33:21;31.10;39.00
3194;DHT22;1608;50.860;13.466;2022-07-18T13:35:48;31.10;40.00
3194;DHT22;1608;50.860;13.466;2022-07-18T13:38:15;31.10;39.60
3194;DHT22;1608;50.860;13.466;2022-07-18T13:40:43;31.00;39.60
3194;DHT22;1608;50.860;13.466;2022-07-18T13:43:10;31.10;39.50
3194;DHT22;1608;50.860;13.466;2022-07-18T13:45:37;31.20;40.20
3194;DHT22;1608;50.860;13.466;2022-07-18T13:48:04;31.20;39.50
3194;DHT22;1608;50.860;13.466;2022-07-18T13:50:31;31.50;40.80
3194;DHT22;1608;50.860;13.466;2022-07-18T13:52:58;31.70;39.10
3194;DHT22;1608;50.860;13.466;2022-07-18T13:55:25;31.70;39.20
3194;DHT22;1608;50.860;13.466;2022-07-18T13:57:53;31.40;37.40
3194;DHT22;1608;50.860;13.466;2022-07-18T14:00:20;31.00;37.80
3194;DHT22;1608;50.860;13.466;2022-07-18T14:02:47;30.80;39.20
3194;DHT22;1608;50.860;13.466;2022-07-18T14:05:13;30.90;39.00
3194;DHT22;1608;50.860;13.466;2022-07-18T14:07:41;30.60;37.20
3194;DHT22;1608;50.860;13.466;2022-07-18T14:10:08;30.60;37.00
3194;DHT22;1608;50.860;13.466;2022-07-18T14:12:35;30.80;37.30
3194;DHT22;1608;50.860;13.466;2022-07-18T14:15:04;31.00;37.10
3194;DHT22;1608;50.860;13.466;2022-07-18T14:17:31;30.70;36.80
3194;DHT22;1608;50.860;13.466;2022-07-18T14:19:58;30.70;37.20
3194;DHT22;1608;50.860;13.466;2022-07-18T14:22:25;30.80;36.90
3194;DHT22;1608;50.860;13.466;2022-07-18T14:24:52;31.10;38.50
3194;DHT22;1608;50.860;13.466;2022-07-18T14:27:19;31.00;37.80
3194;DHT22;1608;50.860;13.466;2022-07-18T14:29:45;31.20;37.90
3194;DHT22;1608;50.860;13.466;2022-07-18T14:32:14;31.20;39.30
3194;DHT22;1608;50.860;13.466;2022-07-18T14:34:40;31.20;39.30
3194;DHT22;1608;50.860;13.466;2022-07-18T14:37:07;31.20;39.40
3194;DHT22;1608;50.860;13.466;2022-07-18T14:39:34;31.20;40.40
3194;DHT22;1608;50.860;13.466;2022-07-18T14:42:00;31.30;40.90
3194;DHT22;1608;50.860;13.466;2022-07-18T14:44:27;31.30;39.70
3194;DHT22;1608;50.860;13.466;2022-07-18T14:46:54;31.10;38.10
3194;DHT22;1608;50.860;13.466;2022-07-18T14:49:22;31.00;39.70
3194;DHT22;1608;50.860;13.466;2022-07-18T14:51:49;31.20;40.50
3194;DHT22;1608;50.860;13.466;2022-07-18T14:54:16;31.10;40.40
3194;DHT22;1608;50.860;13.466;2022-07-18T14:56:43;31.00;39.70
3194;DHT22;1608;50.860;13.466;2022-07-18T14:59:09;31.00;39.80
3194;DHT22;1608;50.860;13.466;2022-07-18T15:01:36;31.00;40.90
3194;DHT22;1608;50.860;13.466;2022-07-18T15:04:03;30.80;39.50
3194;DHT22;1608;50.860;13.466;2022-07-18T15:06:31;30.50;39.70
3194;DHT22;1608;50.860;13.466;2022-07-18T15:08:58;30.50;39.50
3194;DHT22;1608;50.860;13.466;2022-07-18T15:11:24;30.50;41.00
3194;DHT22;1608;50.860;13.466;2022-07-18T15:13:51;30.50;41.00
3194;DHT22;1608;50.860;13.466;2022-07-18T15:16:18;30.40;40.70
3194;DHT22;1608;50.860;13.466;2022-07-18T15:18:45;30.30;40.30
3194;DHT22;1608;50.860;13.466;2022-07-18T15:21:12;30.10;39.80
3194;DHT22;1608;50.860;13.466;2022-07-18T15:23:40;30.10;41.30
3194;DHT22;1608;50.860;13.466;2022-07-18T15:26:07;30.10;41.70
3194;DHT22;1608;50.860;13.466;2022-07-18T15:28:34;29.90;41.60
3194;DHT22;1608;50.860;13.466;2022-07-18T15:31:01;29.70;40.70
3194;DHT22;1608;50.860;13.466;2022-07-18T15:33:27;29.80;40.00
3194;DHT22;1608;50.860;13.466;2022-07-18T15:35:54;29.90;39.30
3194;DHT22;1608;50.860;13.466;2022-07-18T15:38:21;30.10;39.20
3194;DHT22;1608;50.860;13.466;2022-07-18T15:40:49;30.00;40.50
3194;DHT22;1608;50.860;13.466;2022-07-18T15:43:16;30.10;40.50
3194;DHT22;1608;50.860;13.466;2022-07-18T15:45:43;30.10;41.20
3194;DHT22;1608;50.860;13.466;2022-07-18T15:48:10;30.10;40.80
3194;DHT22;1608;50.860;13.466;2022-07-18T15:50:36;30.20;40.80
3194;DHT22;1608;50.860;13.466;2022-07-18T15:53:03;30.20;40.40